Time;durP1;ratioP1;P1;durP2;ratioP2;P2;SDS_P1;SDS_P2;PMS_P1;PMS_P2;Temp;Humidity;BMP_temperature;BMP_pressure;BME280_temperature;BME280_humidity;BME280_pressure;Samples;Min_cycle;Max_cycle;Signal;HPM_P1;HPM_P2
2021/10/30 00:01:58;;;;;;;2.42;1.70;;;15.90;73.40;;;;;;5064935;28;20047;-84
2021/10/30 00:04:24;;;;;;;2.00;1.70;;;15.90;73.40;;;;;;5062981;28;20033;-84
2021/10/30 00:06:51;;;;;;;2.13;1.60;;;15.90;73.40;;;;;;5049553;28;20063;-83
2021/10/30 00:09:17;;;;;;;2.13;1.77;;;15.90;73.40;;;;;;5059178;28;20060;-83
2021/10/30 00:11:42;;;;;;;2.42;1.85;;;15.90;73.40;;;;;;5061888;28;20060;-83
2021/10/30 00:14:08;;;;;;;3.10;1.92;;;15.80;73.40;;;;;;5048956;28;20029;-83
2021/10/30 00:16:34;;;;;;;3.33;2.28;;;15.80;73.40;;;;;;5063111;28;20033;-83
2021/10/30 00:19:00;;;;;;;2.83;1.73;;;15.80;73.40;;;;;;5020722;28;20393;-83
2021/10/30 00:21:25;;;;;;;2.33;1.90;;;15.80;74.10;;;;;;5053895;28;20051;-83
2021/10/30 00:23:51;;;;;;;3.00;1.90;;;15.80;73.50;;;;;;5051988;28;20086;-75
2021/10/30 00:26:17;;;;;;;2.58;1.83;;;15.80;73.40;;;;;;5052470;28;20021;-77
2021/10/30 00:28:43;;;;;;;2.75;1.90;;;15.80;73.50;;;;;;5052242;28;20079;-75
2021/10/30 00:31:09;;;;;;;2.65;1.70;;;15.70;73.40;;;;;;5052332;28;20033;-75
2021/10/30 00:33:34;;;;;;;2.88;2.05;;;15.70;73.40;;;;;;5052404;28;20041;-76
2021/10/30 00:36:00;;;;;;;2.55;2.17;;;15.70;73.40;;;;;;5052308;28;20037;-76
2021/10/30 00:38:26;;;;;;;2.85;2.00;;;15.70;73.40;;;;;;5052099;28;20025;-77
2021/10/30 00:40:51;;;;;;;2.25;1.95;;;15.70;73.40;;;;;;5051862;28;20090;-76
2021/10/30 00:43:17;;;;;;;2.60;2.00;;;15.60;73.40;;;;;;5053050;28;20048;-77
2021/10/30 00:45:47;;;;;;;2.42;1.88;;;15.60;73.40;;;;;;5052171;28;20029;-76
2021/10/30 00:48:14;;;;;;;2.28;1.90;;;15.60;73.50;;;;;;5052333;28;20033;-78
2021/10/30 00:50:40;;;;;;;2.20;1.90;;;15.60;73.40;;;;;;5052080;28;20037;-76
2021/10/30 00:53:06;;;;;;;2.35;1.88;;;15.60;73.50;;;;;;5052982;28;20029;-77
2021/10/30 00:55:33;;;;;;;2.60;2.22;;;15.60;73.50;;;;;;5052673;28;20468;-77
2021/10/30 00:58:00;;;;;;;3.10;2.33;;;15.50;73.40;;;;;;5052009;28;20112;-76
2021/10/30 01:00:26;;;;;;;2.20;2.00;;;15.50;73.40;;;;;;5051561;28;20033;-77
2021/10/30 01:02:52;;;;;;;3.15;1.92;;;15.50;73.40;;;;;;5052229;28;20515;-76
2021/10/30 01:05:18;;;;;;;4.15;2.45;;;15.50;73.50;;;;;;5052163;28;20029;-77
2021/10/30 01:07:44;;;;;;;3.13;2.30;;;15.40;73.40;;;;;;5068334;28;20143;-76
2021/10/30 01:10:11;;;;;;;4.38;2.20;;;15.40;73.50;;;;;;5051810;28;20043;-76
2021/10/30 01:12:36;;;;;;;2.30;1.83;;;15.40;73.50;;;;;;5051924;28;20025;-76
2021/10/30 01:15:05;;;;;;;2.83;2.15;;;15.40;74.10;;;;;;5036032;28;20036;-76
2021/10/30 01:17:32;;;;;;;3.35;2.15;;;15.40;73.50;;;;;;5051728;28;20541;-76
2021/10/30 01:19:58;;;;;;;2.75;1.92;;;15.30;73.50;;;;;;5051475;28;20080;-77
2021/10/30 01:22:24;;;;;;;2.83;2.08;;;15.30;73.50;;;;;;5051832;28;20053;-77
2021/10/30 01:24:52;;;;;;;4.65;2.33;;;15.30;73.50;;;;;;5051892;28;20400;-80
2021/10/30 01:27:20;;;;;;;3.95;2.05;;;15.30;73.60;;;;;;5052454;28;20460;-76
2021/10/30 01:29:50;;;;;;;2.40;1.90;;;15.30;73.60;;;;;;5053514;28;20082;-76
2021/10/30 01:32:18;;;;;;;2.80;2.10;;;15.30;73.60;;;;;;5051608;28;20036;-79
2021/10/30 01:34:44;;;;;;;2.70;2.03;;;15.30;73.60;;;;;;5068454;28;20026;-76
2021/10/30 01:37:11;;;;;;;3.47;2.28;;;15.20;73.60;;;;;;5051415;28;20088;-76
2021/10/30 01:39:37;;;;;;;3.13;2.45;;;15.20;73.60;;;;;;5051768;28;20025;-76
2021/10/30 01:42:03;;;;;;;3.38;2.45;;;15.20;73.50;;;;;;5051569;28;20389;-76
2021/10/30 01:44:28;;;;;;;2.85;2.15;;;15.20;73.60;;;;;;5053258;28;20037;-76
2021/10/30 01:46:59;;;;;;;2.95;2.30;;;15.20;73.60;;;;;;5055115;28;20033;-76
2021/10/30 01:49:28;;;;;;;3.63;2.70;;;15.20;73.60;;;;;;5056091;28;20020;-77
2021/10/30 01:51:54;;;;;;;2.92;2.33;;;15.20;73.60;;;;;;5055369;28;20493;-78
2021/10/30 01:54:21;;;;;;;3.42;2.72;;;15.20;73.60;;;;;;5055861;28;20357;-77
2021/10/30 01:56:47;;;;;;;4.75;2.53;;;15.10;73.60;;;;;;5055859;28;20508;-77
2021/10/30 01:59:13;;;;;;;3.85;2.67;;;15.10;73.60;;;;;;5054585;28;20116;-77
2021/10/30 02:01:39;;;;;;;2.97;2.45;;;15.10;73.60;;;;;;5054783;28;20331;-78
2021/10/30 02:04:05;;;;;;;4.40;2.70;;;15.10;73.60;;;;;;5055132;28;20060;-77
2021/10/30 02:06:31;;;;;;;3.97;2.83;;;15.10;73.60;;;;;;5054757;28;20116;-77
2021/10/30 02:08:56;;;;;;;3.40;2.28;;;15.00;73.60;;;;;;5055691;28;20085;-76
2021/10/30 02:11:22;;;;;;;3.58;2.35;;;15.00;73.60;;;;;;5054707;28;20403;-78
2021/10/30 02:13:48;;;;;;;3.33;2.35;;;15.00;73.60;;;;;;5055348;28;20078;-76
2021/10/30 02:16:14;;;;;;;4.07;2.80;;;15.00;73.60;;;;;;5055449;28;20032;-79
2021/10/30 02:18:43;;;;;;;3.13;2.42;;;15.00;73.60;;;;;;5054607;28;20029;-77
2021/10/30 02:21:12;;;;;;;3.10;2.42;;;14.90;73.60;;;;;;5070323;28;20049;-77
2021/10/30 02:23:38;;;;;;;3.80;2.40;;;14.90;73.60;;;;;;5054675;28;20043;-77
2021/10/30 02:26:04;;;;;;;3.40;2.63;;;15.00;73.70;;;;;;5054514;28;20465;-77
2021/10/30 02:28:30;;;;;;;3.17;2.45;;;14.90;73.60;;;;;;5054441;28;20036;-77
2021/10/30 02:30:55;;;;;;;4.60;2.42;;;14.90;73.70;;;;;;5054361;28;20021;-79
2021/10/30 02:33:22;;;;;;;3.75;2.85;;;14.90;73.70;;;;;;5054276;28;20374;-76
2021/10/30 02:35:47;;;;;;;3.65;2.65;;;14.90;73.70;;;;;;5054296;28;20032;-77
2021/10/30 02:38:13;;;;;;;3.40;2.40;;;14.90;73.70;;;;;;5054319;28;20037;-76
2021/10/30 02:40:39;;;;;;;3.53;2.75;;;14.80;73.60;;;;;;5038094;28;20111;-78
2021/10/30 02:43:04;;;;;;;3.08;2.50;;;14.80;73.70;;;;;;5037532;28;20033;-78
2021/10/30 02:45:30;;;;;;;3.00;2.30;;;14.80;73.70;;;;;;5054004;28;20116;-78
2021/10/30 02:47:56;;;;;;;3.15;2.42;;;14.80;73.70;;;;;;5054338;28;20036;-79
2021/10/30 02:50:22;;;;;;;3.78;2.72;;;14.80;73.80;;;;;;5053887;28;20044;-78
2021/10/30 02:52:48;;;;;;;3.45;2.55;;;14.80;73.80;;;;;;5053705;28;20060;-77
2021/10/30 02:55:13;;;;;;;3.17;2.40;;;14.80;73.80;;;;;;5037553;28;20026;-77
2021/10/30 02:57:47;;;;;;;2.88;2.40;;;14.80;73.80;;;;;;5054615;28;20044;-76
2021/10/30 03:00:14;;;;;;;2.65;2.15;;;14.70;73.80;;;;;;5054233;28;20041;-77
2021/10/30 03:02:39;;;;;;;3.28;2.40;;;14.70;73.80;;;;;;5055209;28;20025;-78
2021/10/30 03:05:06;;;;;;;2.83;2.30;;;14.70;73.80;;;;;;5070349;28;20078;-77
2021/10/30 03:07:33;;;;;;;3.25;2.53;;;14.70;73.90;;;;;;5053965;28;20032;-78
2021/10/30 03:09:59;;;;;;;2.97;2.50;;;14.70;73.90;;;;;;5053580;28;20043;-79
2021/10/30 03:12:25;;;;;;;3.30;2.50;;;14.70;73.90;;;;;;5053669;28;20553;-77
2021/10/30 03:14:51;;;;;;;3.00;2.33;;;14.60;73.80;;;;;;5053288;28;20037;-77
2021/10/30 03:17:16;;;;;;;2.72;2.17;;;14.70;73.90;;;;;;5053592;28;20025;-78
2021/10/30 03:19:42;;;;;;;2.78;2.33;;;14.60;73.90;;;;;;5053966;28;20463;-78
2021/10/30 03:22:08;;;;;;;2.45;2.05;;;14.60;73.90;;;;;;5070602;28;20132;-78
2021/10/30 03:24:36;;;;;;;2.72;2.20;;;14.70;73.90;;;;;;5036480;28;20124;-77
2021/10/30 03:27:02;;;;;;;3.40;2.55;;;14.60;73.90;;;;;;5069616;28;20457;-78
2021/10/30 03:29:27;;;;;;;2.15;1.95;;;14.60;73.90;;;;;;5069570;28;20035;-81
2021/10/30 03:31:53;;;;;;;2.92;2.42;;;14.60;74.00;;;;;;5053224;28;20120;-77
2021/10/30 03:34:19;;;;;;;3.67;2.33;;;14.60;74.00;;;;;;5053498;28;20040;-77
2021/10/30 03:36:45;;;;;;;3.08;2.15;;;14.60;74.00;;;;;;5069921;28;20036;-78
2021/10/30 03:39:11;;;;;;;2.35;2.03;;;14.60;74.00;;;;;;5053063;28;20052;-77
2021/10/30 03:41:37;;;;;;;2.53;2.00;;;14.60;74.10;;;;;;5052836;28;20041;-78
2021/10/30 03:44:03;;;;;;;3.47;2.25;;;14.60;74.10;;;;;;5052940;28;20036;-78
2021/10/30 03:46:29;;;;;;;2.67;2.30;;;14.60;74.10;;;;;;5052797;28;20090;-80
2021/10/30 03:48:54;;;;;;;3.22;2.42;;;14.60;74.20;;;;;;5053642;28;20445;-78
2021/10/30 03:51:20;;;;;;;2.30;2.10;;;14.60;74.20;;;;;;5053341;28;20025;-77
2021/10/30 03:53:46;;;;;;;2.20;2.00;;;14.60;74.20;;;;;;5053670;28;20033;-79
2021/10/30 03:56:12;;;;;;;2.28;2.08;;;14.60;74.20;;;;;;5052583;28;20099;-77
2021/10/30 03:58:37;;;;;;;3.10;2.40;;;14.60;74.20;;;;;;5052302;28;20107;-78
2021/10/30 04:01:03;;;;;;;2.55;2.10;;;14.60;74.80;;;;;;5036118;28;20120;-78
2021/10/30 04:03:29;;;;;;;3.22;2.22;;;14.60;74.20;;;;;;5053205;28;20374;-78
2021/10/30 04:05:55;;;;;;;3.08;2.28;;;14.60;74.20;;;;;;5052000;28;20025;-77
2021/10/30 04:08:20;;;;;;;2.58;2.28;;;14.60;74.20;;;;;;5052294;28;20033;-79
2021/10/30 04:10:47;;;;;;;2.42;2.20;;;14.50;74.20;;;;;;5052319;28;20432;-77
2021/10/30 04:13:13;;;;;;;2.80;2.17;;;14.50;74.20;;;;;;5035917;28;20071;-78
2021/10/30 04:15:39;;;;;;;3.10;2.40;;;14.50;74.30;;;;;;5052641;28;20081;-77
2021/10/30 04:18:04;;;;;;;2.95;2.40;;;14.50;74.20;;;;;;5052768;28;20041;-77
2021/10/30 04:20:30;;;;;;;2.88;2.10;;;14.60;74.30;;;;;;5053788;28;20198;-77
2021/10/30 04:22:56;;;;;;;3.05;2.45;;;14.50;74.20;;;;;;5052221;28;20029;-77
2021/10/30 04:25:22;;;;;;;2.67;2.30;;;14.60;74.30;;;;;;5052126;28;20056;-78
2021/10/30 04:27:47;;;;;;;3.15;2.13;;;14.60;74.30;;;;;;5036359;28;20449;-75
2021/10/30 04:30:13;;;;;;;3.47;2.65;;;14.50;74.30;;;;;;5036184;28;20037;-77
2021/10/30 04:32:39;;;;;;;3.08;2.42;;;14.50;74.30;;;;;;5053551;28;20029;-78
2021/10/30 04:35:09;;;;;;;3.03;2.55;;;14.50;74.30;;;;;;5052619;28;20040;-76
2021/10/30 04:37:35;;;;;;;4.30;2.65;;;14.50;74.30;;;;;;5052057;28;20040;-79
2021/10/30 04:40:01;;;;;;;3.50;2.50;;;14.50;74.30;;;;;;5052251;28;20025;-77
2021/10/30 04:42:27;;;;;;;4.40;3.10;;;14.50;74.40;;;;;;5068667;28;20071;-77
2021/10/30 04:44:53;;;;;;;3.45;2.72;;;14.50;74.40;;;;;;5069148;28;20428;-75
2021/10/30 04:47:19;;;;;;;3.83;2.95;;;14.50;74.40;;;;;;5051896;28;20120;-76
2021/10/30 04:49:47;;;;;;;5.15;3.15;;;14.50;74.40;;;;;;5052154;28;20037;-76
2021/10/30 04:52:13;;;;;;;3.70;2.63;;;14.50;74.40;;;;;;5053290;28;20025;-75
2021/10/30 04:54:39;;;;;;;4.50;3.05;;;14.50;74.40;;;;;;5068403;28;20029;-76
2021/10/30 04:57:05;;;;;;;4.22;2.75;;;14.50;75.10;;;;;;5051845;28;20078;-77
2021/10/30 04:59:31;;;;;;;3.97;3.20;;;14.50;74.40;;;;;;5052255;28;20458;-76
2021/10/30 05:01:57;;;;;;;3.97;2.88;;;14.50;74.40;;;;;;5035283;28;20036;-78
2021/10/30 05:04:23;;;;;;;4.80;3.40;;;14.50;74.40;;;;;;5052060;28;20044;-77
2021/10/30 05:06:49;;;;;;;4.70;3.22;;;14.50;74.50;;;;;;5052157;28;20021;-77
2021/10/30 05:09:15;;;;;;;4.88;3.22;;;14.50;74.40;;;;;;5052046;28;20473;-75
2021/10/30 05:11:41;;;;;;;4.32;3.25;;;14.50;74.40;;;;;;5051986;28;20033;-75
2021/10/30 05:14:07;;;;;;;6.45;3.60;;;14.60;74.50;;;;;;5053036;28;20040;-76
2021/10/30 05:16:32;;;;;;;5.22;3.33;;;14.50;74.40;;;;;;5035333;28;20025;-76
2021/10/30 05:18:58;;;;;;;4.57;3.25;;;14.50;74.40;;;;;;5053100;28;20024;-76
2021/10/30 05:21:24;;;;;;;4.78;3.47;;;14.50;74.40;;;;;;5055772;28;20045;-76
2021/10/30 05:23:50;;;;;;;4.55;3.53;;;14.50;74.40;;;;;;5056506;28;20029;-77
2021/10/30 05:26:15;;;;;;;4.32;3.22;;;14.50;74.40;;;;;;5055506;28;20116;-77
2021/10/30 05:28:41;;;;;;;4.88;3.17;;;14.50;74.40;;;;;;5055317;28;20029;-76
2021/10/30 05:31:07;;;;;;;4.47;3.40;;;14.50;74.40;;;;;;5055558;28;20083;-76
2021/10/30 05:33:33;;;;;;;4.18;3.08;;;14.50;74.50;;;;;;5039525;28;20469;-77
2021/10/30 05:36:19;;;;;;;4.38;3.20;;;14.50;74.50;;;;;;5056031;28;20098;-75
2021/10/30 05:38:53;;;;;;;4.75;3.38;;;14.50;74.50;;;;;;5056123;28;20029;-76
2021/10/30 05:41:19;;;;;;;5.00;3.28;;;14.50;74.50;;;;;;5055262;28;20488;-80
2021/10/30 05:43:45;;;;;;;4.70;3.70;;;14.50;74.50;;;;;;5055689;28;20040;-78
2021/10/30 05:46:11;;;;;;;5.10;3.58;;;14.50;74.50;;;;;;5056091;28;20443;-76
2021/10/30 05:48:37;;;;;;;4.20;3.15;;;14.50;74.50;;;;;;5055297;28;20384;-76
2021/10/30 05:51:05;;;;;;;4.53;3.38;;;14.60;74.60;;;;;;5039292;28;20437;-76
2021/10/30 05:53:31;;;;;;;4.85;3.35;;;14.50;74.50;;;;;;5055173;28;20017;-77
2021/10/30 05:55:57;;;;;;;4.82;3.75;;;14.50;74.50;;;;;;5055985;28;20032;-76
2021/10/30 05:58:23;;;;;;;5.28;3.67;;;14.50;74.50;;;;;;5055429;28;20025;-76
2021/10/30 06:00:48;;;;;;;5.07;3.47;;;14.50;74.50;;;;;;5054857;28;20041;-77
2021/10/30 06:03:14;;;;;;;4.80;3.53;;;14.50;74.50;;;;;;5054711;28;20106;-77
2021/10/30 06:05:40;;;;;;;4.82;3.40;;;14.50;74.50;;;;;;5054705;28;20052;-77
2021/10/30 06:08:06;;;;;;;4.85;3.53;;;14.50;74.50;;;;;;5054788;28;20021;-76
2021/10/30 06:10:34;;;;;;;4.88;3.55;;;14.50;74.50;;;;;;5054913;28;20412;-76
2021/10/30 06:13:00;;;;;;;5.78;3.88;;;14.50;74.50;;;;;;5071440;28;20060;-76
2021/10/30 06:15:25;;;;;;;4.85;3.45;;;14.50;74.50;;;;;;5054349;28;20442;-76
2021/10/30 06:17:51;;;;;;;5.07;3.50;;;14.50;74.50;;;;;;5054631;28;20037;-76
2021/10/30 06:20:17;;;;;;;4.53;3.00;;;14.50;74.50;;;;;;5054194;28;20087;-76
2021/10/30 06:22:43;;;;;;;5.10;3.50;;;14.60;74.60;;;;;;5054952;28;20029;-76
2021/10/30 06:25:11;;;;;;;4.85;3.60;;;14.50;74.50;;;;;;5037896;28;20032;-77
2021/10/30 06:27:37;;;;;;;4.82;3.60;;;14.50;74.50;;;;;;5055694;28;20051;-77
2021/10/30 06:30:04;;;;;;;4.85;3.50;;;14.50;74.50;;;;;;5053843;28;20029;-77
2021/10/30 06:32:30;;;;;;;5.38;3.55;;;14.50;74.50;;;;;;5053893;28;20032;-77
2021/10/30 06:34:56;;;;;;;5.32;4.03;;;14.50;74.50;;;;;;5054576;28;20025;-77
2021/10/30 06:37:21;;;;;;;5.00;3.40;;;14.60;74.60;;;;;;5054842;28;20442;-77
2021/10/30 06:39:47;;;;;;;5.25;3.50;;;14.50;74.50;;;;;;5054002;28;20037;-78
2021/10/30 06:42:13;;;;;;;4.63;3.17;;;14.50;74.50;;;;;;5053926;28;20119;-79
2021/10/30 06:44:40;;;;;;;4.57;3.38;;;14.50;74.50;;;;;;5054087;28;20033;-77
2021/10/30 06:47:06;;;;;;;4.53;3.35;;;14.50;74.50;;;;;;5054005;28;20025;-77
2021/10/30 06:49:32;;;;;;;5.95;3.75;;;14.50;74.50;;;;;;5054038;28;20432;-76
2021/10/30 06:51:58;;;;;;;4.82;3.65;;;14.50;75.20;;;;;;5037544;28;20036;-78
2021/10/30 06:54:25;;;;;;;5.20;3.72;;;14.50;74.50;;;;;;5053911;28;20496;-78
2021/10/30 06:56:51;;;;;;;4.78;3.30;;;14.50;74.50;;;;;;5054534;28;20029;-78
2021/10/30 06:59:17;;;;;;;4.20;3.13;;;14.50;74.50;;;;;;5070382;28;20040;-77
2021/10/30 07:01:42;;;;;;;5.35;3.78;;;14.50;74.60;;;;;;5052882;28;20037;-77
2021/10/30 07:04:08;;;;;;;4.95;3.80;;;14.50;74.60;;;;;;5054313;28;20121;-76
2021/10/30 07:06:34;;;;;;;5.45;3.70;;;14.50;74.60;;;;;;5053646;28;20082;-77
2021/10/30 07:09:00;;;;;;;5.60;4.03;;;14.50;74.60;;;;;;5053562;28;20048;-79
2021/10/30 07:11:27;;;;;;;4.78;3.42;;;14.50;74.60;;;;;;5053418;28;20448;-77
2021/10/30 07:13:52;;;;;;;5.43;3.78;;;14.50;74.60;;;;;;5053637;28;20025;-77
2021/10/30 07:16:19;;;;;;;5.38;3.63;;;14.50;74.60;;;;;;5053163;28;20403;-77
2021/10/30 07:18:45;;;;;;;4.70;3.47;;;14.50;74.60;;;;;;5054389;28;20090;-79
2021/10/30 07:21:11;;;;;;;4.55;3.38;;;14.60;74.70;;;;;;5054878;28;20044;-79
2021/10/30 07:23:37;;;;;;;4.88;3.42;;;14.60;74.70;;;;;;5054821;28;20104;-76
2021/10/30 07:26:04;;;;;;;5.10;3.67;;;14.60;74.70;;;;;;5054547;28;20106;-77
2021/10/30 07:28:29;;;;;;;5.13;3.30;;;14.60;74.70;;;;;;5054024;28;20041;-76
2021/10/30 07:30:55;;;;;;;5.22;3.78;;;14.50;74.60;;;;;;5054030;28;20079;-77
2021/10/30 07:33:21;;;;;;;5.35;3.80;;;14.60;74.70;;;;;;5070036;28;20096;-77
2021/10/30 07:35:47;;;;;;;5.95;3.97;;;14.60;74.70;;;;;;5053118;28;20140;-78
2021/10/30 07:38:14;;;;;;;4.68;3.25;;;14.60;74.70;;;;;;5053122;28;20033;-79
2021/10/30 07:40:40;;;;;;;5.05;3.60;;;14.60;74.80;;;;;;5053021;28;20461;-78
2021/10/30 07:43:05;;;;;;;5.82;3.53;;;14.50;74.70;;;;;;5052548;28;20035;-79
2021/10/30 07:45:32;;;;;;;4.82;3.15;;;14.60;74.80;;;;;;5053020;28;20082;-78
2021/10/30 07:47:58;;;;;;;5.45;3.72;;;14.60;74.80;;;;;;5053567;28;20029;-78
2021/10/30 07:50:24;;;;;;;4.75;3.60;;;14.60;74.80;;;;;;5053131;28;20036;-80
2021/10/30 07:52:51;;;;;;;6.18;4.05;;;14.60;74.80;;;;;;5053331;28;20039;-79
2021/10/30 07:55:17;;;;;;;5.50;3.50;;;14.60;74.90;;;;;;5052536;28;20033;-79
2021/10/30 07:57:43;;;;;;;4.55;3.40;;;14.60;74.80;;;;;;5069126;28;20033;-79
2021/10/30 08:00:10;;;;;;;4.78;3.55;;;14.60;74.90;;;;;;5052529;28;20115;-79
2021/10/30 08:02:40;;;;;;;4.07;3.13;;;14.60;74.90;;;;;;5053879;28;20033;-76
2021/10/30 08:05:06;;;;;;;5.22;3.67;;;14.60;74.90;;;;;;5052308;28;20477;-76
2021/10/30 08:07:33;;;;;;;4.90;3.47;;;14.60;74.80;;;;;;5052683;28;20025;-77
2021/10/30 08:10:00;;;;;;;4.72;3.42;;;14.60;74.90;;;;;;5052459;28;20033;-79
2021/10/30 08:12:26;;;;;;;4.78;3.25;;;14.60;74.90;;;;;;5053419;28;20057;-78
2021/10/30 08:14:52;;;;;;;5.20;3.55;;;14.60;74.80;;;;;;5052858;28;20057;-78
2021/10/30 08:17:18;;;;;;;5.82;3.80;;;14.60;74.80;;;;;;5052231;28;20111;-78
2021/10/30 08:19:43;;;;;;;5.32;3.47;;;14.60;74.90;;;;;;5036326;28;20416;-77
2021/10/30 08:22:09;;;;;;;5.13;3.30;;;14.60;74.80;;;;;;5035750;28;20060;-77
2021/10/30 08:24:35;;;;;;;5.05;3.60;;;14.60;74.80;;;;;;5052593;28;20029;-77
2021/10/30 08:27:01;;;;;;;3.92;2.95;;;14.60;74.80;;;;;;5052937;28;20072;-77
2021/10/30 08:29:27;;;;;;;5.13;3.40;;;14.60;74.90;;;;;;5069200;28;20029;-80
2021/10/30 08:31:53;;;;;;;4.90;3.63;;;14.70;74.90;;;;;;5052919;28;20477;-80
2021/10/30 08:34:19;;;;;;;4.88;3.40;;;14.60;74.90;;;;;;5053181;28;20083;-78
2021/10/30 08:36:44;;;;;;;4.43;3.20;;;14.60;74.90;;;;;;5052672;28;20037;-78
2021/10/30 08:39:11;;;;;;;5.18;2.92;;;14.60;75.00;;;;;;5052036;28;20074;-78
2021/10/30 08:41:38;;;;;;;4.30;3.10;;;14.70;75.10;;;;;;5052935;28;20053;-77
2021/10/30 08:44:04;;;;;;;4.95;3.42;;;14.70;75.10;;;;;;5053339;28;20025;-79
2021/10/30 08:46:31;;;;;;;4.68;3.28;;;14.70;75.10;;;;;;5053664;28;20047;-79
2021/10/30 08:48:59;;;;;;;4.60;3.00;;;14.70;75.10;;;;;;5051994;28;20176;-78
2021/10/30 08:51:25;;;;;;;4.13;3.03;;;14.70;75.10;;;;;;5052167;28;20477;-79
2021/10/30 08:53:50;;;;;;;4.40;3.17;;;14.70;75.10;;;;;;5055558;28;20028;-78
2021/10/30 08:56:16;;;;;;;4.15;2.88;;;14.70;75.10;;;;;;5056279;28;20037;-79
2021/10/30 08:58:42;;;;;;;4.30;3.00;;;14.70;75.10;;;;;;5056077;28;20025;-80
2021/10/30 09:01:10;;;;;;;4.43;3.08;;;14.70;75.10;;;;;;5057053;28;20136;-78
2021/10/30 09:03:37;;;;;;;4.10;2.92;;;14.70;75.10;;;;;;5056379;28;20025;-82
2021/10/30 09:06:04;;;;;;;4.65;2.80;;;14.70;75.10;;;;;;5040173;28;20037;-78
2021/10/30 09:08:31;;;;;;;4.85;3.10;;;14.70;75.10;;;;;;5039783;28;20116;-77
2021/10/30 09:11:02;;;;;;;4.60;3.10;;;14.70;75.10;;;;;;5072326;28;20040;-77
2021/10/30 09:13:30;;;;;;;4.15;2.72;;;14.80;75.10;;;;;;5056125;28;20025;-79
2021/10/30 09:15:56;;;;;;;4.43;2.97;;;14.80;75.10;;;;;;5055687;28;20025;-78
2021/10/30 09:18:35;;;;;;;4.00;2.85;;;14.80;75.20;;;;;;5056607;28;20063;-77
2021/10/30 09:21:04;;;;;;;3.90;2.85;;;14.80;75.30;;;;;;5055419;28;20052;-78
2021/10/30 09:23:35;;;;;;;4.47;2.83;;;14.80;75.20;;;;;;5056716;28;20037;-79
2021/10/30 09:26:08;;;;;;;4.22;2.67;;;14.80;75.20;;;;;;5055530;28;20033;-77
2021/10/30 09:28:47;;;;;;;4.13;2.67;;;14.80;75.20;;;;;;5056321;28;20549;-77
2021/10/30 09:31:14;;;;;;;4.22;2.83;;;14.80;75.20;;;;;;5055643;28;20083;-79
2021/10/30 09:33:55;;;;;;;3.47;2.50;;;14.80;75.10;;;;;;5056325;28;20112;-78
2021/10/30 09:36:26;;;;;;;3.40;2.40;;;14.80;75.30;;;;;;5055598;28;20348;-78
2021/10/30 09:39:00;;;;;;;4.30;2.67;;;14.80;75.20;;;;;;5055673;28;20552;-79
2021/10/30 09:41:31;;;;;;;3.25;2.40;;;14.80;75.30;;;;;;5071676;28;20040;-77
2021/10/30 09:43:59;;;;;;;4.30;2.75;;;14.80;75.20;;;;;;5055697;28;20037;-78
2021/10/30 09:46:27;;;;;;;3.22;2.25;;;14.80;75.20;;;;;;5056587;28;20049;-78
2021/10/30 09:48:55;;;;;;;3.15;2.40;;;14.80;75.30;;;;;;5056849;28;20040;-80
2021/10/30 09:51:33;;;;;;;3.38;2.50;;;14.80;75.20;;;;;;5055257;28;20123;-79
2021/10/30 09:53:59;;;;;;;3.75;2.30;;;14.80;75.30;;;;;;5055840;28;20036;-79
2021/10/30 09:56:43;;;;;;;3.22;2.38;;;14.90;75.20;;;;;;5054983;28;20043;-78
2021/10/30 09:59:13;;;;;;;3.28;2.40;;;14.90;75.30;;;;;;5056560;28;20036;-78
2021/10/30 10:01:39;;;;;;;4.40;2.60;;;14.90;75.20;;;;;;5066782;28;20546;-79
2021/10/30 10:04:06;;;;;;;4.15;2.88;;;14.90;75.30;;;;;;5055420;28;20484;-78
2021/10/30 10:06:32;;;;;;;4.07;2.47;;;14.90;75.20;;;;;;5054227;28;20067;-78
2021/10/30 10:09:01;;;;;;;4.00;2.55;;;14.90;75.20;;;;;;5055065;28;20116;-78
2021/10/30 10:11:27;;;;;;;3.05;2.17;;;14.90;75.20;;;;;;5054706;28;20453;-79
2021/10/30 10:13:53;;;;;;;3.97;2.60;;;14.90;75.20;;;;;;5054567;28;20036;-78
2021/10/30 10:16:22;;;;;;;3.90;2.70;;;14.90;75.20;;;;;;5054776;28;20059;-78
2021/10/30 10:18:51;;;;;;;3.65;2.42;;;15.00;75.20;;;;;;5054787;28;20416;-80
2021/10/30 10:21:21;;;;;;;4.03;2.58;;;15.00;75.20;;;;;;5054410;28;20485;-79
2021/10/30 10:23:47;;;;;;;2.92;2.08;;;15.00;75.20;;;;;;5055925;28;20053;-80
2021/10/30 10:26:14;;;;;;;3.13;2.33;;;15.00;75.20;;;;;;5071680;28;20064;-78
2021/10/30 10:28:40;;;;;;;3.25;2.30;;;15.00;75.20;;;;;;5071045;28;20128;-80
2021/10/30 10:31:25;;;;;;;3.05;2.33;;;15.00;75.20;;;;;;5054232;28;20029;-81
2021/10/30 10:34:07;;;;;;;3.38;2.38;;;15.00;75.20;;;;;;5055137;28;20029;-79
2021/10/30 10:36:33;;;;;;;2.83;2.10;;;15.00;75.20;;;;;;5055119;28;20048;-79
2021/10/30 10:38:59;;;;;;;3.05;2.05;;;15.10;75.10;;;;;;5054132;28;20116;-79
2021/10/30 10:41:37;;;;;;;3.03;2.22;;;15.10;75.20;;;;;;5054023;28;20123;-79
2021/10/30 10:44:15;;;;;;;3.20;2.08;;;15.10;75.30;;;;;;5054118;28;20473;-79
2021/10/30 10:46:54;;;;;;;3.58;2.45;;;15.10;75.20;;;;;;5070824;28;20385;-79
2021/10/30 10:49:47;;;;;;;2.90;2.17;;;15.10;75.20;;;;;;5054578;28;20453;-78
2021/10/30 10:52:22;;;;;;;3.22;2.17;;;15.10;75.20;;;;;;5054807;28;20369;-78
2021/10/30 10:54:54;;;;;;;3.08;2.30;;;15.10;75.10;;;;;;5054152;28;20044;-79
2021/10/30 10:57:32;;;;;;;4.03;2.40;;;15.10;75.10;;;;;;5053848;28;20037;-78
2021/10/30 11:00:05;;;;;;;2.70;2.08;;;15.10;75.20;;;;;;5054097;28;20082;-78
2021/10/30 11:02:36;;;;;;;2.65;2.15;;;15.20;75.20;;;;;;5054010;28;20393;-78
2021/10/30 11:05:08;;;;;;;2.88;2.25;;;15.10;75.10;;;;;;5054772;28;20112;-78
2021/10/30 11:07:43;;;;;;;3.28;2.20;;;15.20;75.20;;;;;;5053593;28;20068;-78
2021/10/30 11:10:20;;;;;;;2.95;2.25;;;15.20;75.10;;;;;;5070529;28;20086;-81
2021/10/30 11:13:10;;;;;;;3.15;2.35;;;15.20;75.20;;;;;;5054422;28;20029;-78
2021/10/30 11:15:55;;;;;;;2.58;1.88;;;15.20;75.30;;;;;;5053872;28;20086;-78
2021/10/30 11:21:17;;;;;;;3.08;2.30;;;15.20;75.10;;;;;;5053176;28;20052;-78
2021/10/30 11:23:46;;;;;;;2.85;2.10;;;15.20;75.10;;;;;;5054721;28;20040;-78
2021/10/30 11:26:22;;;;;;;3.00;1.98;;;15.20;75.20;;;;;;5053467;28;20072;-80
2021/10/30 11:28:48;;;;;;;2.53;1.95;;;15.20;75.20;;;;;;5070495;28;20061;-81
2021/10/30 11:31:22;;;;;;;2.88;2.10;;;15.20;75.20;;;;;;5053138;28;20016;-77
2021/10/30 11:33:58;;;;;;;2.92;2.05;;;15.30;75.30;;;;;;5054969;28;20029;-77
2021/10/30 11:36:25;;;;;;;2.88;2.20;;;15.30;75.30;;;;;;5053429;28;20028;-77
2021/10/30 11:38:53;;;;;;;3.00;2.22;;;15.30;75.30;;;;;;5053160;28;20028;-78
2021/10/30 11:41:21;;;;;;;2.92;2.20;;;15.30;75.30;;;;;;5052969;28;20067;-78
2021/10/30 11:43:50;;;;;;;2.75;2.00;;;15.30;75.40;;;;;;5053033;28;20021;-78
2021/10/30 11:46:18;;;;;;;3.03;2.03;;;15.30;75.70;;;;;;5069723;28;20029;-78
2021/10/30 11:48:49;;;;;;;2.35;1.90;;;15.40;75.90;;;;;;5053019;28;20032;-79
2021/10/30 11:51:19;;;;;;;3.35;2.03;;;15.40;76.00;;;;;;5053542;28;20330;-78
2021/10/30 11:53:47;;;;;;;2.78;1.85;;;15.40;76.00;;;;;;5052964;28;20426;-77
2021/10/30 11:56:15;;;;;;;2.97;1.77;;;15.40;76.00;;;;;;5054426;28;20033;-79
2021/10/30 11:58:47;;;;;;;3.00;1.98;;;15.40;76.00;;;;;;5053655;28;20029;-78
2021/10/30 12:01:29;;;;;;;2.75;2.00;;;15.40;76.00;;;;;;5053245;28;20372;-79
2021/10/30 12:04:22;;;;;;;3.10;2.20;;;15.50;76.10;;;;;;5052741;28;20064;-79
2021/10/30 12:07:03;;;;;;;4.07;2.00;;;15.50;76.00;;;;;;5052404;28;20076;-77
2021/10/30 12:09:33;;;;;;;2.00;1.77;;;15.50;76.10;;;;;;5052242;28;20071;-78
2021/10/30 12:12:00;;;;;;;2.53;1.75;;;15.50;76.00;;;;;;5052760;28;20124;-78
2021/10/30 12:14:32;;;;;;;2.22;1.88;;;15.50;76.00;;;;;;5052603;28;20025;-79
2021/10/30 12:17:18;;;;;;;2.30;1.70;;;15.50;76.00;;;;;;5054134;28;20112;-78
2021/10/30 12:19:54;;;;;;;2.70;1.95;;;15.60;76.10;;;;;;5068599;28;20055;-78
2021/10/30 12:22:21;;;;;;;2.88;1.70;;;15.60;76.00;;;;;;5054067;28;20032;-78
2021/10/30 12:25:03;;;;;;;1.65;1.52;;;15.60;76.00;;;;;;5052331;28;20025;-79
2021/10/30 12:27:31;;;;;;;2.60;1.80;;;15.60;76.10;;;;;;5052006;28;20117;-79
2021/10/30 12:30:06;;;;;;;2.20;1.80;;;15.60;75.90;;;;;;5052458;28;20025;-75
2021/10/30 12:32:46;;;;;;;2.30;1.63;;;15.60;76.00;;;;;;5052405;28;20029;-78
2021/10/30 12:35:26;;;;;;;2.45;2.08;;;15.70;76.10;;;;;;5052188;28;20033;-79
2021/10/30 12:37:52;;;;;;;2.05;1.58;;;15.70;76.10;;;;;;5052500;28;20457;-79
2021/10/30 12:40:22;;;;;;;2.08;1.73;;;15.70;76.00;;;;;;5069397;28;20075;-78
2021/10/30 12:43:12;;;;;;;2.38;1.80;;;15.70;76.00;;;;;;5052980;28;20036;-78
2021/10/30 12:45:48;;;;;;;2.33;1.60;;;15.80;76.10;;;;;;5068706;28;20465;-78
2021/10/30 12:48:15;;;;;;;1.83;1.60;;;15.80;76.00;;;;;;5052371;28;20071;-78
2021/10/30 12:50:41;;;;;;;1.95;1.70;;;15.80;76.00;;;;;;5052068;28;20058;-77
2021/10/30 12:53:23;;;;;;;2.33;1.67;;;15.80;76.00;;;;;;5053199;28;20033;-80
2021/10/30 12:56:19;;;;;;;2.58;1.77;;;15.90;76.20;;;;;;5053590;28;20108;-78